Terminal Aerodrome Forecast
Issued by NWS Wakefield, VA

Current Version | Previous Version | Text Only | Print | Product List | Glossary On
Versions: 1 2 3 4 5 6 7 8 9 10 11 12
000
FTUS41 KAKQ 232320
TAFECG
TAF
KECG 232320Z 2400/2424 13006KT P6SM SKC
     FM240900 12004KT 3SM BR BKN060
     FM241300 11005KT 4SM BR BKN050
     FM241600 13008KT P6SM SCT060
     FM242100 13012G19KT P6SM SCT200=

USA.gov is the U.S. government's official web portal to all federal, state and local government web resources and services.